createdAt,value
2017-07-16T00:00:44.169Z,58.97
2017-07-16T00:01:54.199Z,58.97
2017-07-16T00:03:04.820Z,58.97
2017-07-16T00:04:15.180Z,58.97
2017-07-16T00:05:25.560Z,59.06
2017-07-16T00:06:35.902Z,59.06
2017-07-16T00:07:46.262Z,59.06
2017-07-16T00:08:56.621Z,59.06
2017-07-16T00:10:06.958Z,59.06
2017-07-16T00:11:17.315Z,59.16
2017-07-16T00:12:27.651Z,59.16
2017-07-16T00:13:38.018Z,58.87
2017-07-16T00:14:48.079Z,58.87
2017-07-16T00:15:58.120Z,59.26
2017-07-16T00:17:07.842Z,59.16
2017-07-16T00:18:18.231Z,58.97
2017-07-16T00:19:28.276Z,59.06
2017-07-16T00:20:38.622Z,58.97
2017-07-16T00:21:48.987Z,59.16
2017-07-16T00:22:59.031Z,59.06
2017-07-16T00:24:09.123Z,59.06
2017-07-16T00:25:19.483Z,59.26
2017-07-16T00:26:29.856Z,59.06
2017-07-16T00:27:40.192Z,58.97
2017-07-16T00:28:50.544Z,59.06
2017-07-16T00:30:00.321Z,59.16
2017-07-16T00:31:10.662Z,59.06
2017-07-16T00:32:21.024Z,58.97
2017-07-16T00:33:31.366Z,58.97
2017-07-16T00:34:41.757Z,58.97
2017-07-16T00:35:51.849Z,59.06
2017-07-16T00:37:02.197Z,58.97
2017-07-16T00:38:12.224Z,59.06
2017-07-16T00:39:22.249Z,59.06
2017-07-16T00:40:32.641Z,59.06
2017-07-16T00:41:43.033Z,59.06
2017-07-16T00:42:53.391Z,59.06
2017-07-16T00:44:03.748Z,59.16
2017-07-16T00:45:14.125Z,58.97
2017-07-16T00:46:24.461Z,59.06
2017-07-16T00:47:34.871Z,58.97
2017-07-16T00:48:45.233Z,59.06
2017-07-16T00:49:54.942Z,58.97
2017-07-16T00:51:04.658Z,58.87
2017-07-16T00:52:14.704Z,59.26
2017-07-16T00:53:24.826Z,59.16
2017-07-16T00:54:34.872Z,59.26
2017-07-16T00:55:45.212Z,58.97
2017-07-16T00:56:55.241Z,59.06
2017-07-16T00:58:05.264Z,59.06
2017-07-16T00:59:15.457Z,59.06
2017-07-16T01:00:25.803Z,58.97
2017-07-16T01:01:36.139Z,58.97
2017-07-16T01:02:46.475Z,59.06
2017-07-16T01:03:56.860Z,58.97
2017-07-16T01:05:07.292Z,58.97
2017-07-16T01:06:17.330Z,59.26
2017-07-16T01:07:27.682Z,59.16
2017-07-16T01:08:38.033Z,59.06
2017-07-16T01:09:48.377Z,59.16
2017-07-16T01:10:58.735Z,59.16
2017-07-16T01:12:08.448Z,59.06
2017-07-16T01:13:18.793Z,58.87
2017-07-16T01:14:29.185Z,59.16
2017-07-16T01:15:39.536Z,58.97
2017-07-16T01:16:49.243Z,58.87
2017-07-16T01:17:59.581Z,59.06
2017-07-16T01:19:09.610Z,58.97
2017-07-16T01:20:19.644Z,59.06
2017-07-16T01:21:29.988Z,59.26
2017-07-16T01:22:39.801Z,59.06
2017-07-16T01:23:50.156Z,59.06
2017-07-16T01:25:00.530Z,58.78
2017-07-16T01:26:10.912Z,59.26
2017-07-16T01:27:21.253Z,59.06
2017-07-16T01:28:31.329Z,59.06
2017-07-16T01:29:41.672Z,59.06
2017-07-16T01:30:51.707Z,59.45
2017-07-16T01:32:01.435Z,59.45
2017-07-16T01:33:11.784Z,58.78
2017-07-16T01:34:21.822Z,59.45
2017-07-16T01:35:32.201Z,59.45
2017-07-16T01:36:41.907Z,59.45
2017-07-16T01:37:52.274Z,58.97
2017-07-16T01:39:02.633Z,59.36
2017-07-16T01:40:12.963Z,59.45
2017-07-16T01:41:23.319Z,59.06
2017-07-16T01:42:33.678Z,59.06
2017-07-16T01:43:44.053Z,59.16
2017-07-16T01:44:54.409Z,58.97
2017-07-16T01:46:04.761Z,59.55
2017-07-16T01:47:15.108Z,59.52
2017-07-16T01:48:25.471Z,59.45
2017-07-16T01:49:35.832Z,59.36
2017-07-16T01:50:46.212Z,58.84
2017-07-16T01:51:56.574Z,59.45
2017-07-16T01:53:06.610Z,59.45
2017-07-16T01:54:16.975Z,59.16
2017-07-16T01:55:27.337Z,59.45
2017-07-16T01:56:37.698Z,58.94
2017-07-16T01:57:47.719Z,59.36
2017-07-16T01:58:57.760Z,59.45
2017-07-16T02:00:08.117Z,59.55
2017-07-16T02:01:18.477Z,59.55
2017-07-16T02:02:28.935Z,59.06
2017-07-16T02:03:39.342Z,59.45
2017-07-16T02:04:49.384Z,59.55
2017-07-16T02:05:59.400Z,59.45
2017-07-16T02:07:09.595Z,59.23
2017-07-16T02:08:19.620Z,59.52
2017-07-16T02:09:29.695Z,59.26
2017-07-16T02:10:39.735Z,59.52
2017-07-16T02:11:50.109Z,59.42
2017-07-16T02:13:00.167Z,59.16
2017-07-16T02:14:09.878Z,59.13
2017-07-16T02:15:20.234Z,59.33
2017-07-16T02:16:30.590Z,59.13
2017-07-16T02:17:40.937Z,59.13
2017-07-16T02:18:50.694Z,59.33
2017-07-16T02:20:01.066Z,59.45
2017-07-16T02:21:10.768Z,59.13
2017-07-16T02:22:20.789Z,59.13
2017-07-16T02:23:30.526Z,59.45
2017-07-16T02:24:40.540Z,59.23
2017-07-16T02:25:50.912Z,59.33
2017-07-16T02:27:00.996Z,59.42
2017-07-16T02:28:11.338Z,59.42
2017-07-16T02:29:21.050Z,59.42
2017-07-16T02:30:31.403Z,59.42
2017-07-16T02:31:41.438Z,59.42
2017-07-16T02:32:51.839Z,59.33
2017-07-16T02:34:02.207Z,59.42
2017-07-16T02:35:12.293Z,59.33
2017-07-16T02:36:22.633Z,59.42
2017-07-16T02:37:32.987Z,59.33
2017-07-16T02:38:43.005Z,59.33
2017-07-16T02:39:53.034Z,59.42
2017-07-16T02:41:03.405Z,59.33
2017-07-16T02:42:13.746Z,59.33
2017-07-16T02:43:24.081Z,59.42
2017-07-16T02:44:34.169Z,59.33
2017-07-16T02:45:44.524Z,59.52
2017-07-16T02:46:54.558Z,59.33
2017-07-16T02:48:04.897Z,59.23
2017-07-16T02:49:15.225Z,59.33
2017-07-16T02:50:25.322Z,59.42
2017-07-16T02:51:35.343Z,59.23
2017-07-16T02:52:45.702Z,59.23
2017-07-16T02:53:56.053Z,59.33
2017-07-16T02:55:06.405Z,59.42
2017-07-16T02:56:16.755Z,59.52
2017-07-16T02:57:27.096Z,59.42
2017-07-16T02:58:37.474Z,59.33
2017-07-16T02:59:47.811Z,59.52
2017-07-16T03:00:58.153Z,59.33
2017-07-16T03:33:21.157Z,56.02
2017-07-16T03:34:31.497Z,56.69
2017-07-16T03:35:41.836Z,57.07
2017-07-16T03:36:51.865Z,57.77
2017-07-16T03:38:01.889Z,58.44
2017-07-16T03:39:11.965Z,58.83
2017-07-16T03:40:22.317Z,58.73
2017-07-16T03:41:32.709Z,59.2
2017-07-16T03:42:43.040Z,59.49
2017-07-16T03:43:53.091Z,60
2017-07-16T03:45:03.434Z,59.72
2017-07-16T03:46:13.131Z,59.94
2017-07-16T03:47:23.483Z,59.94
2017-07-16T03:48:33.833Z,59.77
2017-07-16T03:49:43.861Z,59.39
2017-07-16T03:50:54.277Z,59.68
2017-07-16T03:52:04.620Z,59.58
2017-07-16T03:53:14.963Z,59.48
2017-07-16T03:54:24.671Z,59.52
2017-07-16T03:55:35.016Z,59.42
2017-07-16T03:56:45.358Z,59.04
2017-07-16T03:57:55.708Z,59.04
2017-07-16T03:59:05.420Z,59.26
2017-07-16T04:00:15.756Z,58.97
2017-07-16T04:01:25.779Z,58.97
2017-07-16T04:02:35.845Z,58.97
2017-07-16T04:03:46.193Z,59.06
2017-07-16T04:04:56.227Z,58.97
2017-07-16T04:06:05.930Z,59.38
2017-07-16T04:07:16.264Z,59.38
2017-07-16T04:08:26.349Z,59
2017-07-16T04:09:36.714Z,59.09
2017-07-16T04:10:47.087Z,59.09
2017-07-16T04:11:57.439Z,58.91
2017-07-16T04:13:07.801Z,59.03
2017-07-16T04:14:18.149Z,59.29
2017-07-16T04:15:28.181Z,58.84
2017-07-16T04:16:38.533Z,58.26
2017-07-16T04:17:48.574Z,58.36
2017-07-16T04:18:58.606Z,58.55
2017-07-16T04:20:08.643Z,58.74
2017-07-16T04:21:19.005Z,58.64
2017-07-16T04:22:29.349Z,58.55
2017-07-16T04:23:39.381Z,58.84
2017-07-16T04:24:49.391Z,58.87
2017-07-16T04:25:59.778Z,58.67
2017-07-16T04:27:09.793Z,58.2
2017-07-16T04:28:20.147Z,56.3
2017-07-16T04:29:30.176Z,54.39
2017-07-16T04:30:40.200Z,53.31
2017-07-16T04:31:50.590Z,52.43
2017-07-16T04:33:00.293Z,52.55
2017-07-16T04:34:10.315Z,52.44
2017-07-16T04:35:20.344Z,52.36
2017-07-16T04:36:30.736Z,52.39
2017-07-16T04:37:41.144Z,52.9
2017-07-16T04:38:51.172Z,52.83
2017-07-16T04:40:01.524Z,53.05
2017-07-16T04:41:11.555Z,52.69
2017-07-16T04:42:21.911Z,53.1
2017-07-16T04:43:32.002Z,52.91
2017-07-16T04:44:42.042Z,52.84
2017-07-16T04:45:52.396Z,53.06
2017-07-16T04:47:02.740Z,52.69
2017-07-16T04:48:12.765Z,52.98
2017-07-16T04:49:23.131Z,52.98
2017-07-16T04:50:33.481Z,53.01
2017-07-16T04:51:43.837Z,52.72
2017-07-16T04:52:54.207Z,53.01
2017-07-16T04:54:04.566Z,53.11
2017-07-16T04:55:14.917Z,52.84
2017-07-16T04:56:25.279Z,53.04
2017-07-16T04:57:35.633Z,52.84
2017-07-16T04:58:45.978Z,52.94
2017-07-16T04:59:56.029Z,53.16
2017-07-16T05:01:06.049Z,53.16
2017-07-16T05:02:16.085Z,53.06
2017-07-16T05:03:26.139Z,52.77
2017-07-16T05:04:36.490Z,53.06
2017-07-16T05:05:46.829Z,53.16
2017-07-16T05:06:57.228Z,52.99
2017-07-16T05:08:07.590Z,52.6
2017-07-16T05:09:17.302Z,52.99
2017-07-16T05:10:27.650Z,53.09
2017-07-16T05:11:37.693Z,53.11
2017-07-16T05:12:48.109Z,53.02
2017-07-16T05:13:58.157Z,53.41
2017-07-16T05:15:08.516Z,53.02
2017-07-16T05:16:18.556Z,53.21
2017-07-16T05:17:28.595Z,53.11
2017-07-16T05:18:38.983Z,52.83
2017-07-16T05:19:49.029Z,53.02
2017-07-16T05:20:58.749Z,53.02
2017-07-16T05:22:08.802Z,53.21
2017-07-16T05:23:19.144Z,52.83
2017-07-16T05:24:29.242Z,52.83
2017-07-16T05:25:39.587Z,52.5
2017-07-16T05:26:49.950Z,53.09
2017-07-16T05:28:00.306Z,53.19
2017-07-16T05:29:10.653Z,53.09
2017-07-16T05:30:21.061Z,52.8
2017-07-16T05:31:31.406Z,52.89
2017-07-16T05:32:41.752Z,52.8
2017-07-16T05:33:51.800Z,52.99
2017-07-16T05:35:02.179Z,52.7
2017-07-16T05:36:12.321Z,53.09
2017-07-16T05:37:22.711Z,53.19
2017-07-16T05:38:33.064Z,52.89
2017-07-16T05:39:43.462Z,52.7
2017-07-16T05:40:53.848Z,52.5
2017-07-16T05:42:04.252Z,52.89
2017-07-16T05:43:13.979Z,53.16
2017-07-16T05:44:24.332Z,52.99
2017-07-16T05:45:34.380Z,52.67
2017-07-16T05:46:44.749Z,53.06
2017-07-16T05:47:54.790Z,52.97
2017-07-16T05:49:05.143Z,53.16
2017-07-16T05:50:15.500Z,53.16
2017-07-16T05:51:25.541Z,52.89
2017-07-16T05:52:35.914Z,53.09
2017-07-16T05:53:45.976Z,53.28
2017-07-16T05:54:56.019Z,53.16
2017-07-16T05:56:06.416Z,52.87
2017-07-16T05:57:16.760Z,52.97
2017-07-16T05:58:26.793Z,53.14
2017-07-16T05:59:37.140Z,52.84
2017-07-16T06:00:47.500Z,53.33
2017-07-16T06:01:57.857Z,53.4
2017-07-16T06:03:07.890Z,53.89
2017-07-16T06:04:17.650Z,53.5
2017-07-16T06:05:27.994Z,53.77
2017-07-16T06:06:37.712Z,53.96
2017-07-16T06:07:48.062Z,53.86
2017-07-16T06:08:58.094Z,54.13
2017-07-16T06:10:08.441Z,54.03
2017-07-16T06:11:18.851Z,54.52
2017-07-16T06:12:29.214Z,54.42
2017-07-16T06:13:39.357Z,54.32
2017-07-16T06:14:49.716Z,54.29
2017-07-16T06:16:00.093Z,54.29
2017-07-16T06:17:10.437Z,54.2
2017-07-16T06:18:20.799Z,54.2
2017-07-16T06:19:31.173Z,54.58
2017-07-16T06:20:41.210Z,54.46
2017-07-16T06:21:51.582Z,54.56
2017-07-16T06:23:01.279Z,55.33
2017-07-16T06:24:11.336Z,56.05
2017-07-16T06:25:21.747Z,57.17
2017-07-16T06:26:31.774Z,57.62
2017-07-16T06:27:41.878Z,58.14
2017-07-16T06:28:51.928Z,57.76
2017-07-16T06:30:01.974Z,56.6
2017-07-16T06:31:12.346Z,56.04
2017-07-16T06:32:22.705Z,55.4
2017-07-16T06:33:33.063Z,54.71
2017-07-16T06:34:43.413Z,54.74
2017-07-16T06:35:53.798Z,54.35
2017-07-16T06:37:04.135Z,54.45
2017-07-16T06:38:14.506Z,54.71
2017-07-16T06:39:24.879Z,54.74
2017-07-16T06:40:35.227Z,54.71
2017-07-16T06:41:45.592Z,54.71
2017-07-16T06:42:55.957Z,54.81
2017-07-16T06:44:06.314Z,55.13
2017-07-16T06:45:16.679Z,55.32
2017-07-16T06:46:26.702Z,55.4
2017-07-16T06:47:36.742Z,55.4
2017-07-16T06:48:46.777Z,55.4
2017-07-16T06:49:56.811Z,55.3
2017-07-16T06:51:07.353Z,55.58
2017-07-16T06:52:17.767Z,55.78
2017-07-16T06:53:28.104Z,55.68
2017-07-16T06:54:38.476Z,55.78
2017-07-16T06:55:48.852Z,56.16
2017-07-16T06:56:58.900Z,56.14
2017-07-16T06:58:09.277Z,56.04
2017-07-16T06:59:19.324Z,56.62
2017-07-16T07:00:29.351Z,56.62
2017-07-16T07:01:39.701Z,57.11
2017-07-16T07:02:50.049Z,56.24
2017-07-16T07:04:00.431Z,56.4
2017-07-16T07:05:10.782Z,56.98
2017-07-16T07:06:21.294Z,57.08
2017-07-16T07:07:31.325Z,56.98
2017-07-16T07:08:41.719Z,57.08
2017-07-16T07:09:52.083Z,56.4
2017-07-16T07:11:01.811Z,56.5
2017-07-16T07:12:11.842Z,56.79
2017-07-16T07:13:22.409Z,56.79
2017-07-16T07:14:32.776Z,57.37
2017-07-16T07:15:42.835Z,57.54
2017-07-16T07:16:52.558Z,57.44
2017-07-16T07:18:02.654Z,57.44
2017-07-16T07:19:13.002Z,57.44
2017-07-16T07:20:22.728Z,57.44
2017-07-16T07:21:32.754Z,57.24
2017-07-16T07:22:42.824Z,57.73
2017-07-16T07:23:53.170Z,57.44
2017-07-16T07:25:03.518Z,56.95
2017-07-16T07:26:13.548Z,57.08
2017-07-16T07:27:23.907Z,56.95
2017-07-16T07:28:33.948Z,57.15
2017-07-16T07:29:44.296Z,56.98
2017-07-16T07:30:54.327Z,56.95
2017-07-16T07:32:04.683Z,56.95
2017-07-16T07:33:14.732Z,57.05
2017-07-16T07:34:25.114Z,56.95
2017-07-16T07:35:35.209Z,56.86
2017-07-16T07:36:45.582Z,56.86
2017-07-16T07:37:55.950Z,56.95
2017-07-16T07:39:06.305Z,57.05
2017-07-16T07:40:16.663Z,56.6
2017-07-16T07:41:26.073Z,56.79
2017-07-16T07:42:36.111Z,56.6
2017-07-16T07:43:45.823Z,56.7
2017-07-16T07:44:56.210Z,56.7
2017-07-16T07:46:06.239Z,56.79
2017-07-16T07:47:16.614Z,56.79
2017-07-16T07:48:27.010Z,56.6
2017-07-16T07:49:37.385Z,56.6
2017-07-16T07:50:47.745Z,56.79
2017-07-16T07:51:57.789Z,56.62
2017-07-16T07:53:07.251Z,56.6
2017-07-16T07:54:17.304Z,56.5
2017-07-16T07:55:27.666Z,57.08
2017-07-16T07:56:38.031Z,56.88
2017-07-16T07:57:48.384Z,56.98
2017-07-16T07:58:58.801Z,56.88
2017-07-16T08:00:09.158Z,56.88
2017-07-16T08:01:19.549Z,57.11
2017-07-16T08:02:29.590Z,57.11
2017-07-16T08:03:39.942Z,57.2
2017-07-16T08:04:50.345Z,56.62
2017-07-16T08:06:00.710Z,56.62
2017-07-16T08:07:10.763Z,56.62
2017-07-16T08:08:20.813Z,56.72
2017-07-16T08:09:31.185Z,56.72
2017-07-16T08:10:41.543Z,56.72
2017-07-16T08:11:51.889Z,56.72
2017-07-16T08:13:02.255Z,56.34
2017-07-16T08:14:12.612Z,56.75
2017-07-16T08:15:22.974Z,56.65
2017-07-16T08:16:33.416Z,56.85
2017-07-16T08:17:43.793Z,56.75
2017-07-16T08:18:54.150Z,56.65
2017-07-16T08:20:04.209Z,56.85
2017-07-16T08:21:14.570Z,56.85
2017-07-16T08:22:24.971Z,56.97
2017-07-16T08:23:35.317Z,56.85
2017-07-16T08:24:45.669Z,56.87
2017-07-16T08:25:55.705Z,56.68
2017-07-16T08:27:05.785Z,56.77
2017-07-16T08:28:15.846Z,56.77
2017-07-16T08:29:26.205Z,56.77
2017-07-16T08:30:36.248Z,56.77
2017-07-16T08:31:46.606Z,56.68
2017-07-16T08:32:56.656Z,56.68
2017-07-16T08:34:07.031Z,56.59
2017-07-16T08:35:17.413Z,56.9
2017-07-16T08:36:27.789Z,56.51
2017-07-16T08:37:37.507Z,56.81
2017-07-16T08:38:47.556Z,56.71
2017-07-16T08:39:57.966Z,56.71
2017-07-16T08:41:08.332Z,57.09
2017-07-16T08:42:18.410Z,57
2017-07-16T08:43:28.763Z,57.09
2017-07-16T08:44:38.798Z,57.09
2017-07-16T08:45:49.036Z,57.29
2017-07-16T08:46:59.396Z,56.71
2017-07-16T08:48:09.777Z,56.9
2017-07-16T08:49:20.149Z,56.81
2017-07-16T08:50:30.511Z,56.71
2017-07-16T08:51:40.568Z,56.9
2017-07-16T08:52:50.918Z,57.09
2017-07-16T08:54:01.288Z,56.93
2017-07-16T08:55:11.350Z,56.93
2017-07-16T08:56:21.384Z,56.83
2017-07-16T08:57:31.753Z,56.83
2017-07-16T08:58:41.801Z,56.83
2017-07-16T08:59:52.165Z,56.74
2017-07-16T09:01:02.212Z,56.83
2017-07-16T09:02:12.584Z,56.83
2017-07-16T09:03:23.010Z,56.83
2017-07-16T09:04:33.380Z,56.76
2017-07-16T09:05:43.733Z,56.96
2017-07-16T09:06:53.776Z,56.76
2017-07-16T09:08:03.500Z,56.86
2017-07-16T09:09:13.908Z,56.96
2017-07-16T09:10:23.961Z,56.86
2017-07-16T09:11:34.014Z,56.86
2017-07-16T09:12:44.613Z,56.96
2017-07-16T09:13:54.666Z,56.76
2017-07-16T09:15:04.442Z,56.96
2017-07-16T09:16:15.017Z,56.98
2017-07-16T09:17:25.376Z,56.96
2017-07-16T09:18:35.427Z,56.7
2017-07-16T09:19:45.454Z,56.86
2017-07-16T09:20:55.241Z,56.89
2017-07-16T09:22:05.595Z,57.06
2017-07-16T09:23:15.644Z,57.18
2017-07-16T09:24:25.999Z,56.98
2017-07-16T09:25:36.389Z,57.08
2017-07-16T09:26:46.804Z,57.08
2017-07-16T09:27:57.170Z,57.08
2017-07-16T09:29:07.551Z,57.31
2017-07-16T09:30:17.549Z,57.21
2017-07-16T09:31:27.605Z,57.31
2017-07-16T09:32:37.658Z,57.11
2017-07-16T09:33:48.015Z,57.21
2017-07-16T09:34:58.397Z,57.11
2017-07-16T09:36:08.670Z,57.21
2017-07-16T09:37:19.063Z,56.95
2017-07-16T09:38:29.451Z,56.85
2017-07-16T09:39:39.903Z,56.56
2017-07-16T09:40:50.254Z,56.56
2017-07-16T09:42:00.628Z,57.14
2017-07-16T09:43:11.007Z,57.17
2017-07-16T09:44:20.749Z,56.49
2017-07-16T09:45:30.469Z,57.26
2017-07-16T09:46:40.514Z,56.49
2017-07-16T09:47:50.887Z,56.1
2017-07-16T09:49:00.614Z,56.32
2017-07-16T09:50:11.037Z,56.03
2017-07-16T09:51:21.088Z,55.76
2017-07-16T09:52:31.466Z,56.15
2017-07-16T09:53:41.843Z,56.05
2017-07-16T09:54:52.202Z,55.76
2017-07-16T09:56:02.297Z,56.05
2017-07-16T09:57:12.354Z,56.35
2017-07-16T09:58:22.719Z,56.45
2017-07-16T09:59:32.430Z,56.45
2017-07-16T10:00:42.834Z,56.54
2017-07-16T10:01:52.944Z,56.25
2017-07-16T10:03:03.361Z,56.37
2017-07-16T10:04:13.742Z,56.37
2017-07-16T10:05:23.802Z,56.47
2017-07-16T10:06:34.179Z,56.47
2017-07-16T10:07:44.593Z,55.89
2017-07-16T10:08:54.959Z,56.21
2017-07-16T10:10:04.990Z,56.11
2017-07-16T10:11:15.361Z,56.7
2017-07-16T10:12:25.406Z,58.1
2017-07-16T10:13:35.505Z,57.78
2017-07-16T10:14:45.873Z,58.14
2017-07-16T10:15:55.600Z,58.43
2017-07-16T10:17:06.016Z,57.62
2017-07-16T10:18:15.432Z,57.26
2017-07-16T10:19:25.806Z,56.32
2017-07-16T10:20:36.189Z,56.15
2017-07-16T10:21:46.559Z,55.72
2017-07-16T10:22:56.601Z,54.87
2017-07-16T10:24:06.962Z,54.5
2017-07-16T10:25:17.045Z,54.63
2017-07-16T10:26:27.115Z,54.66
2017-07-16T10:27:36.858Z,54.46
2017-07-16T10:28:46.905Z,55.08
2017-07-16T10:29:57.265Z,55.9
2017-07-16T10:31:07.648Z,56.92
2017-07-16T10:32:18.026Z,57.57
2017-07-16T10:33:28.391Z,57.93
2017-07-16T10:34:38.445Z,58.1
2017-07-16T10:35:48.829Z,57.87
2017-07-16T10:36:58.920Z,56.45
2017-07-16T10:38:08.963Z,56.18
2017-07-16T10:39:19.351Z,55.82
2017-07-16T10:40:29.718Z,55.75
2017-07-16T10:41:40.088Z,55.38
2017-07-16T10:42:50.456Z,54.83
2017-07-16T10:44:00.838Z,54.56
2017-07-16T10:45:11.214Z,54.3
2017-07-16T10:46:21.566Z,54.13
2017-07-16T10:47:31.919Z,53.96
2017-07-16T10:48:42.331Z,54.15
2017-07-16T10:49:52.391Z,54.44
2017-07-16T10:51:02.770Z,55.91
2017-07-16T10:52:12.837Z,56.25
2017-07-16T10:53:23.209Z,56.51
2017-07-16T10:54:33.578Z,56.29
2017-07-16T10:55:43.957Z,56.02
2017-07-16T10:56:54.007Z,56.61
2017-07-16T10:58:04.064Z,56.58
2017-07-16T10:59:14.449Z,57.31
2017-07-16T11:00:24.808Z,57.4
2017-07-16T11:01:35.183Z,56.82
2017-07-16T11:02:45.763Z,55.41
2017-07-16T11:03:56.125Z,55.54
2017-07-16T11:05:06.486Z,54.88
2017-07-16T11:06:16.883Z,54.69
2017-07-16T11:07:27.254Z,54.81
2017-07-16T11:08:37.315Z,54.91
2017-07-16T11:09:47.692Z,54.61
2017-07-16T11:10:58.065Z,54.54
2017-07-16T11:12:08.485Z,55.06
2017-07-16T11:13:18.546Z,55.98
2017-07-16T11:14:28.919Z,57.2
2017-07-16T11:15:38.965Z,57.17
2017-07-16T11:16:49.332Z,57.63
2017-07-16T11:17:59.753Z,57.89
2017-07-16T11:19:10.104Z,57.99
2017-07-16T11:20:20.454Z,57.86
2017-07-16T11:21:30.799Z,57.96
2017-07-16T11:22:41.159Z,56.96
2017-07-16T11:23:51.583Z,56.11
2017-07-16T11:25:01.937Z,55.68
2017-07-16T11:26:12.268Z,55.51
2017-07-16T11:27:22.639Z,55.8
2017-07-16T11:28:33.017Z,55.34
2017-07-16T11:29:43.110Z,55.05
2017-07-16T11:30:53.459Z,55.08
2017-07-16T11:32:03.818Z,54.79
2017-07-16T11:33:13.878Z,54.81
2017-07-16T11:34:23.957Z,54.61
2017-07-16T11:35:34.037Z,54.44
2017-07-16T11:36:44.394Z,53.98
2017-07-16T11:37:54.843Z,54.11
2017-07-16T11:39:04.895Z,54.4
2017-07-16T11:40:14.943Z,53.74
2017-07-16T11:41:26.338Z,54.52
2017-07-16T11:42:36.901Z,55.28
2017-07-16T11:43:47.275Z,55.08
2017-07-16T11:44:57.625Z,55.94
2017-07-16T11:46:07.992Z,55.55
2017-07-16T11:47:18.082Z,56.3
2017-07-16T11:48:28.446Z,56.54
2017-07-16T11:49:38.815Z,56.25
2017-07-16T11:50:49.204Z,56.84
2017-07-16T11:51:58.966Z,56.84
2017-07-16T11:53:09.393Z,56.81
2017-07-16T11:54:19.977Z,55.96
2017-07-16T11:55:30.321Z,55.57
2017-07-16T11:56:40.040Z,55.3
2017-07-16T11:57:50.083Z,55.1
2017-07-16T11:59:00.508Z,55.1
2017-07-16T12:00:10.887Z,55.03
2017-07-16T12:01:21.248Z,54.57
2017-07-16T12:02:31.300Z,54.67
2017-07-16T12:03:41.345Z,54.5
2017-07-16T12:04:51.783Z,55.18
2017-07-16T12:06:01.850Z,54.47
2017-07-16T12:07:12.215Z,54.6
2017-07-16T12:08:22.616Z,54.91
2017-07-16T12:09:32.989Z,54.62
2017-07-16T12:10:43.408Z,54.46
2017-07-16T12:11:53.797Z,55.53
2017-07-16T12:13:04.166Z,55.57
2017-07-16T12:14:13.888Z,56.33
2017-07-16T12:15:23.924Z,56.4
2017-07-16T12:16:34.276Z,55.84
2017-07-16T12:17:44.337Z,56.13
2017-07-16T12:18:54.712Z,56.6
2017-07-16T12:20:04.427Z,56.37
2017-07-16T12:21:14.789Z,55.79
2017-07-16T12:22:24.837Z,56.3
2017-07-16T12:23:34.885Z,56.27
2017-07-16T12:24:45.260Z,56.25
2017-07-16T12:25:55.641Z,55.76
2017-07-16T12:27:05.692Z,55.88
2017-07-16T12:28:15.482Z,55.22
2017-07-16T12:29:25.206Z,55.03
2017-07-16T12:30:35.579Z,54.77
2017-07-16T12:31:45.959Z,54.4
2017-07-16T12:32:55.988Z,54.06
2017-07-16T12:34:06.040Z,54.85
2017-07-16T12:35:16.415Z,55.96
2017-07-16T12:36:26.789Z,55.65
2017-07-16T12:37:36.850Z,54.99
2017-07-16T12:38:46.882Z,54.69
2017-07-16T12:39:57.287Z,54.5
2017-07-16T12:41:07.662Z,54.91
2017-07-16T12:42:18.016Z,54.91
2017-07-16T12:43:28.384Z,54.89
2017-07-16T12:44:38.742Z,54.72
2017-07-16T12:45:49.104Z,54.55
2017-07-16T12:46:59.476Z,54.75
2017-07-16T12:48:09.540Z,54.85
2017-07-16T12:49:19.924Z,54.85
2017-07-16T12:50:30.319Z,54.77
2017-07-16T12:51:40.731Z,55.24
2017-07-16T12:52:51.097Z,54.55
2017-07-16T12:54:01.161Z,54.97
2017-07-16T12:55:11.554Z,55.16
2017-07-16T12:56:21.273Z,54.94
2017-07-16T12:57:31.691Z,54.68
2017-07-16T12:58:42.063Z,54.97
2017-07-16T12:59:52.414Z,54.8
2017-07-16T13:01:02.457Z,55.16
2017-07-16T13:02:12.520Z,55.82
2017-07-16T13:03:22.930Z,56.48
2017-07-16T13:04:33.335Z,56.43
2017-07-16T13:05:43.692Z,55.84
2017-07-16T13:06:54.059Z,55.96
2017-07-16T13:08:04.422Z,55.01
2017-07-16T13:09:14.773Z,54.55
2017-07-16T13:10:24.840Z,54.68
2017-07-16T13:11:35.200Z,54.19
2017-07-16T13:12:44.919Z,53.92
2017-07-16T13:13:55.295Z,53.45
2017-07-16T13:15:05.695Z,53.09
2017-07-16T13:16:16.058Z,52.99
2017-07-16T13:17:26.106Z,53.41
2017-07-16T13:18:36.477Z,53.63
2017-07-16T13:19:46.840Z,53.44
2017-07-16T13:20:57.221Z,53.75
2017-07-16T13:22:07.590Z,53.66
2017-07-16T13:23:17.957Z,53.46
2017-07-16T13:24:27.675Z,53.49
2017-07-16T13:25:38.051Z,53.49
2017-07-16T13:26:48.099Z,54.47
2017-07-16T13:27:58.145Z,54.61
2017-07-16T13:29:08.568Z,54.88
2017-07-16T13:30:18.925Z,54.85
2017-07-16T13:31:29.291Z,54.83
2017-07-16T13:32:39.734Z,55.02
2017-07-16T13:33:49.458Z,54.66
2017-07-16T13:34:59.567Z,54.73
2017-07-16T13:36:09.931Z,54.95
2017-07-16T13:37:20.575Z,54.56
2017-07-16T13:38:30.999Z,54.95
2017-07-16T13:39:41.370Z,54.95
2017-07-16T13:40:51.747Z,54.95
2017-07-16T13:42:02.153Z,54.73
2017-07-16T13:43:12.230Z,55.12
2017-07-16T13:44:22.309Z,54.93
2017-07-16T13:45:32.664Z,55.19
2017-07-16T13:46:43.037Z,55.49
2017-07-16T13:47:53.092Z,55.49
2017-07-16T13:49:03.139Z,55.39
2017-07-16T13:50:13.179Z,55.1
2017-07-16T13:51:23.538Z,54.9
2017-07-16T13:52:33.917Z,55
2017-07-16T13:53:44.300Z,55
2017-07-16T13:54:54.756Z,55.1
2017-07-16T13:56:05.194Z,55.1
2017-07-16T13:57:15.616Z,54.6
2017-07-16T13:58:26.002Z,54.8
2017-07-16T13:59:36.376Z,55
2017-07-16T14:00:46.560Z,54.9
2017-07-16T14:01:56.987Z,54.6
2017-07-16T14:03:07.403Z,54.14
2017-07-16T14:04:17.792Z,54.24
2017-07-16T14:05:28.186Z,54.73
2017-07-16T14:06:38.557Z,54.63
2017-07-16T14:07:48.945Z,55.39
2017-07-16T14:08:59.068Z,55.36
2017-07-16T14:10:09.435Z,55.16
2017-07-16T14:11:19.490Z,55.07
2017-07-16T14:12:29.891Z,55.95
2017-07-16T14:13:40.283Z,56.02
2017-07-16T14:14:50.736Z,56.19
2017-07-16T14:16:01.124Z,56.75
2017-07-16T14:17:11.511Z,56.16
2017-07-16T14:18:21.908Z,56.56
2017-07-16T14:19:32.359Z,56.13
2017-07-16T14:20:42.779Z,55.77
2017-07-16T14:21:52.836Z,55.87
2017-07-16T14:23:03.210Z,55.28
2017-07-16T14:24:13.589Z,55.08
2017-07-16T14:25:23.953Z,55.31
2017-07-16T14:26:34.403Z,55.21
2017-07-16T14:27:44.782Z,55.96
2017-07-16T14:28:55.153Z,56.06
2017-07-16T14:30:05.531Z,56.2
2017-07-16T14:31:15.613Z,56.79
2017-07-16T14:32:26.042Z,57.06
2017-07-16T14:33:36.097Z,56.93
2017-07-16T14:34:46.174Z,56.74
2017-07-16T14:35:56.585Z,56.9
2017-07-16T14:37:06.647Z,57.39
2017-07-16T14:38:17.082Z,56.87
2017-07-16T14:39:27.482Z,57.17
2017-07-16T14:40:37.857Z,57.26
2017-07-16T14:41:47.904Z,57.04
2017-07-16T14:42:58.275Z,57.24
2017-07-16T14:44:08.635Z,57.43
2017-07-16T14:45:19.025Z,57.01
2017-07-16T14:46:29.066Z,56.92
2017-07-16T14:47:39.120Z,57.11
2017-07-16T14:48:49.473Z,57.4
2017-07-16T14:50:00.155Z,57.5
2017-07-16T14:51:10.207Z,56.72
2017-07-16T14:52:20.570Z,56.62
2017-07-16T14:53:30.963Z,56.62
2017-07-16T14:54:41.326Z,56.33
2017-07-16T14:55:51.748Z,55.77
2017-07-16T14:57:02.117Z,55.61
2017-07-16T14:58:12.509Z,56
2017-07-16T14:59:22.561Z,55.8
2017-07-16T15:00:32.972Z,55.83
2017-07-16T15:01:43.414Z,55.73
2017-07-16T15:02:53.459Z,55.44
2017-07-16T15:04:03.816Z,56.02
2017-07-16T15:05:14.178Z,56.2
2017-07-16T15:06:24.534Z,56.29
2017-07-16T15:07:34.912Z,56.29
2017-07-16T15:08:45.299Z,56.2
2017-07-16T15:09:55.664Z,56.87
2017-07-16T15:11:06.042Z,57.07
2017-07-16T15:12:16.417Z,57.14
2017-07-16T15:13:26.822Z,56.52
2017-07-16T15:14:36.866Z,55.97
2017-07-16T15:15:47.238Z,56.29
2017-07-16T15:16:57.608Z,55.9
2017-07-16T15:18:07.976Z,55.63
2017-07-16T15:19:18.394Z,55.73
2017-07-16T15:20:28.442Z,55.86
2017-07-16T15:21:38.817Z,55.96
2017-07-16T15:22:49.211Z,55.76
2017-07-16T15:23:59.589Z,55.76
2017-07-16T15:25:10.006Z,56.08
2017-07-16T15:26:20.392Z,55.57
2017-07-16T15:27:30.757Z,55.57
2017-07-16T15:28:40.813Z,55.88
2017-07-16T15:29:50.875Z,55.69
2017-07-16T15:31:01.370Z,55.88
2017-07-16T15:32:11.888Z,55.79
2017-07-16T15:33:22.325Z,56.08
2017-07-16T15:34:32.747Z,56.25
2017-07-16T15:35:43.165Z,56.47
2017-07-16T15:36:53.209Z,57.42
2017-07-16T15:38:03.623Z,57.49
2017-07-16T15:39:13.704Z,57.17